Ide Min — PC8366 — position and weather

sailwx.info

Track history (hours):
 
Tides and Currents Weather Stations Pressure Air Temp Water Temp Dewpoint Dewpoint Depression Visibility Wind Speed Wind Dir Waves Ship Positions

Ide Min (Netherlands)

Ship's website: http://www.idemin.nl/english/english.html

Last reported at 2017-May-25 13:28 UTC. Time now 2017-May-28 08:34 UTC.
Position N 54°43' E 010°23'.

Length 40 m; draft 2.4 m.

MMSI: 244537000.

Date/timePositionNaut miles runAvg speedWind from/ knotsBaromVisibWave heightAir tempDewpointWater temp
2017-May-25 13:28N 54°43' E 010°23'1 2.2
2017-May-25 12:59N 54°44' E 010°24'1 2.3
2017-May-25 12:22N 54°45' E 010°25'1 2.2
2017-May-25 12:00N 54°46' E 010°25'1 2.2
2017-May-25 11:26N 54°47' E 010°27'2 4.8
2017-May-25 10:59N 54°49' E 010°29'3 5.1
2017-May-25 10:29N 54°50' E 010°33'1 2.1
2017-May-25 09:58N 54°51' E 010°32'2 3.6
2017-May-25 09:30N 54°53' E 010°34'2 4.3
2017-May-25 09:00N 54°53' E 010°38'1 0.3
2017-May-25 05:19N 54°54' E 010°38'0 0.0
2017-May-24 17:31N 54°54' E 010°38'0 0.0
2017-May-24 17:01N 54°54' E 010°38'0 0.0
2017-May-24 16:37N 54°54' E 010°38'0 0.0
2017-May-24 15:13N 54°54' E 010°38'0 0.0
2017-May-24 14:57N 54°54' E 010°38'1 2.1
2017-May-24 14:30N 54°53' E 010°38'4 3.7
2017-May-24 13:29N 54°52' E 010°31'2 3.7
2017-May-24 12:59N 54°50' E 010°32'4 6.5
2017-May-24 12:23N 54°49' E 010°26'2 5.1
2017-May-24 11:57N 54°49' E 010°22'3 4.7
2017-May-24 11:19N 54°50' E 010°18'11 5.3
2017-May-24 09:18N 55°00' E 010°12'2 5.4
2017-May-24 08:54N 55°02' E 010°13'1 0.0
2017-May-23 13:25N 55°03' E 010°13'2 4.4
2017-May-23 12:55N 55°01' E 010°12'2 3.5
2017-May-23 12:29N 54°60' E 010°11'4 5.9
2017-May-23 11:48N 54°56' E 010°09'2 5.2
2017-May-23 11:29N 54°54' E 010°09'3 5.4
2017-May-23 10:58N 54°51' E 010°08'  
2017-May-16 09:23N 54°50' E 010°29'  
Track history (hours):
 
Tides and Currents Weather Stations Pressure Air Temp Water Temp Dewpoint Dewpoint Depression Visibility Wind Speed Wind Dir Waves Ship Positions

Ide Min (Netherlands)

Ship's website: http://www.idemin.nl/english/english.html

Last reported at 2017-May-25 13:28 UTC. Time now 2017-May-28 08:34 UTC.
Position N 54°43' E 010°23'.

Length 40 m; draft 2.4 m.

MMSI: 244537000.

Date/timePositionNaut miles runAvg speedWind from/ knotsBaromVisibWave heightAir tempDewpointWater temp
2017-May-25 13:28N 54°43' E 010°23'1 2.2
2017-May-25 12:59N 54°44' E 010°24'1 2.3
2017-May-25 12:22N 54°45' E 010°25'1 2.2
2017-May-25 12:00N 54°46' E 010°25'1 2.2
2017-May-25 11:26N 54°47' E 010°27'2 4.8
2017-May-25 10:59N 54°49' E 010°29'3 5.1
2017-May-25 10:29N 54°50' E 010°33'1 2.1
2017-May-25 09:58N 54°51' E 010°32'2 3.6
2017-May-25 09:30N 54°53' E 010°34'2 4.3
2017-May-25 09:00N 54°53' E 010°38'1 0.3
2017-May-25 05:19N 54°54' E 010°38'0 0.0
2017-May-24 17:31N 54°54' E 010°38'0 0.0
2017-May-24 17:01N 54°54' E 010°38'0 0.0
2017-May-24 16:37N 54°54' E 010°38'0 0.0
2017-May-24 15:13N 54°54' E 010°38'0 0.0
2017-May-24 14:57N 54°54' E 010°38'1 2.1
2017-May-24 14:30N 54°53' E 010°38'4 3.7
2017-May-24 13:29N 54°52' E 010°31'2 3.7
2017-May-24 12:59N 54°50' E 010°32'4 6.5
2017-May-24 12:23N 54°49' E 010°26'2 5.1
2017-May-24 11:57N 54°49' E 010°22'3 4.7
2017-May-24 11:19N 54°50' E 010°18'11 5.3
2017-May-24 09:18N 55°00' E 010°12'2 5.4
2017-May-24 08:54N 55°02' E 010°13'1 0.0
2017-May-23 13:25N 55°03' E 010°13'2 4.4
2017-May-23 12:55N 55°01' E 010°12'2 3.5
2017-May-23 12:29N 54°60' E 010°11'4 5.9
2017-May-23 11:48N 54°56' E 010°09'2 5.2
2017-May-23 11:29N 54°54' E 010°09'3 5.4
2017-May-23 10:58N 54°51' E 010°08'  
2017-May-16 09:23N 54°50' E 010°29'  

Dump ship's entire track history